Flight Track Log - Related Links

Times and Time Zones

All times are in EDT time to prevent confusion due to time zone crossing. See the FDX1286 flight status page for this flight to view local times or setup timezone preferences in your user account.

Time Position Orientation Groundspeed Altitude Reporting Facility
EDT Latitude Longitude Course Direction KTS MPH feet Rate Location/Type
Tue 10:40:51 PM 39.7720 -82.9770 217° Southwest 207 238 2,700  Level FlightAware ADS-B
Tue 10:41:19 PM 39.7500 -83.0010 220° Southwest 238 274 3,400 1,607 Climbing FlightAware ADS-B
Tue 10:41:47 PM 39.7250 -83.0300 222° Southwest 270 311 4,200 2,318 Climbing FlightAware ADS-B
Tue 10:42:03 PM 39.7180 -83.0530 248° West 264 304 5,100 3,409 Climbing FlightAware ADS-B
Tue 10:42:31 PM 39.7240 -83.0960 280° West 257 296 6,700 3,321 Climbing FlightAware ADS-B
Tue 10:42:59 PM 39.7300 -83.1390 280° West 257 296 8,200 3,000 Climbing FlightAware ADS-B
Tue 10:43:23 PM 39.7220 -83.1750 254° West 264 304 9,300 2,226 Climbing FlightAware ADS-B
Tue 10:44:01 PM 39.6980 -83.2300 240° Southwest 296 341 10,500 1,537 Climbing FlightAware ADS-B
Tue 10:44:45 PM 39.6650 -83.3050 240° Southwest 345 397 11,400 1,725 Climbing FlightAware ADS-B
Tue 10:45:21 PM 39.6360 -83.3680 239° Southwest 356 410 12,800 2,432 Climbing FlightAware ADS-B
Tue 10:45:59 PM 39.6020 -83.4410 239° Southwest 369 425 14,400 2,500 Climbing FlightAware ADS-B
Tue 10:46:45 PM 39.5620 -83.5300 240° Southwest 376 433 16,300 2,512 Climbing FlightAware ADS-B
Tue 10:47:25 PM 39.5270 -83.6080 240° Southwest 379 436 18,000 2,169 Climbing FlightAware ADS-B
Tue 10:48:08 PM 39.4880 -83.6910 239° Southwest 390 449 19,300 1,857 Climbing FlightAware ADS-B
Tue 10:48:49 PM 39.4490 -83.7770 240° Southwest 398 458 20,600 2,000 Climbing FlightAware ADS-B
Tue 10:49:29 PM 39.4110 -83.8610 240° Southwest 400 460 22,000 2,154 Climbing FlightAware ADS-B
Tue 10:50:07 PM 39.3750 -83.9370 239° Southwest 399 459 23,400 1,950 Climbing FlightAware ADS-B
Tue 10:50:49 PM 39.3350 -84.0240 239° Southwest 404 465 24,600 1,500 Climbing FlightAware ADS-B
Tue 10:51:23 PM 39.3030 -84.0930 239° Southwest 410 472 25,300 494 Climbing FlightAware ADS-B
Tue 10:52:14 PM 39.2590 -84.1830 238° Southwest 410 472 25,300 1,230 Level FlightAware ADS-B
Tue 10:55:22 PM 39.0560 -84.6200 239° Southwest 448 516 30,200 1,459 Climbing FlightAware ADS-B
Tue 10:55:56 PM 39.0160 -84.6920 234° Southwest 456 525 30,700 1,125 Climbing FlightAware ADS-B
Tue 10:56:42 PM 38.9440 -84.7730 221° Southwest 462 532 31,700 1,297 Climbing FlightAware ADS-B
Tue 10:57:47 PM 38.8380 -84.8750 217° Southwest 457 526 33,100 1,389 Climbing FlightAware ADS-B
Tue 10:58:30 PM 38.7600 -84.9510 217° Southwest 450 518 34,200 1,373 Climbing FlightAware ADS-B
Tue 10:59:10 PM 38.6920 -85.0160 217° Southwest 442 509 35,000 658 Climbing FlightAware ADS-B
Tue 10:59:43 PM 38.6420 -85.0650 217° Southwest 442 509 35,000  Level FlightAware ADS-B
Tue 11:00:28 PM 38.5650 -85.1390 217° Southwest 445 512 35,000  Level FlightAware ADS-B
Tue 11:01:13 PM 38.4900 -85.2100 217° Southwest 447 514 35,000 71 Level FlightAware ADS-B
Tue 11:01:53 PM 38.4230 -85.2740 217° Southwest 452 520 35,100 675 Climbing FlightAware ADS-B
Tue 11:02:33 PM 38.3570 -85.3380 217° Southwest 448 516 35,900 643 Climbing FlightAware ADS-B
Tue 11:03:17 PM 38.2840 -85.4070 217° Southwest 443 510 36,000 71 Climbing FlightAware ADS-B
Tue 11:03:57 PM 38.2180 -85.4690 216° Southwest 444 511 36,000  Level FlightAware ADS-B
Tue 11:04:33 PM 38.1580 -85.5260 217° Southwest 448 516 36,000  Level FlightAware ADS-B
Tue 11:05:13 PM 38.0910 -85.5870 216° Southwest 448 516 36,000  Level FlightAware ADS-B
Tue 11:05:59 PM 38.0090 -85.6490 211° Southwest 453 521 36,000  Level FlightAware ADS-B
Tue 11:06:31 PM 37.9510 -85.6920 210° Southwest 455 524 36,000  Level FlightAware ADS-B
Tue 11:07:15 PM 37.8700 -85.7520 210° Southwest 457 526 36,000  Level FlightAware ADS-B
Tue 11:07:57 PM 37.7940 -85.8090 211° Southwest 457 526 36,000  Level FlightAware ADS-B
Tue 11:08:39 PM 37.7170 -85.8660 210° Southwest 456 525 36,000  Level FlightAware ADS-B
Tue 11:09:19 PM 37.6430 -85.9200 210° Southwest 459 528 36,000  Level FlightAware ADS-B
Tue 11:10:03 PM 37.5630 -85.9800 211° Southwest 461 531 36,000  Level FlightAware ADS-B
Tue 11:10:21 PM 37.5280 -86.0057 210° Southwest 463 533 36,000  Level FlightAware ADS-B
Tue 11:10:52 PM 37.4720 -86.0467 210° Southwest 465 535 36,000  Level FlightAware ADS-B
Tue 11:11:22 PM 37.4149 -86.0892 211° Southwest 466 536 36,000  Level FlightAware ADS-B
Tue 11:11:53 PM 37.3573 -86.1317 210° Southwest 470 541 36,000  Level FlightAware ADS-B
Tue 11:12:24 PM 37.2990 -86.1733 210° Southwest 475 547 36,000  Level FlightAware ADS-B
Tue 11:12:59 PM 37.2312 -86.2233 210° Southwest 478 550 36,000  Level FlightAware ADS-B
Tue 11:13:47 PM 37.1404 -86.2893 210° Southwest 482 555 36,000 76 Level FlightAware ADS-B
Tue 11:14:18 PM 37.0807 -86.3331 210° Southwest 483 556 36,100  Climbing FlightAware ADS-B
Tue 11:14:49 PM 37.0196 -86.3782 211° Southwest 487 560 36,000 -103 Descending FlightAware ADS-B
Tue 11:15:16 PM 36.9684 -86.4150 210° Southwest 488 562 36,000  Level FlightAware ADS-B
Tue 11:15:24 PM 36.9522 -86.4290 215° Southwest 486 559 36,000  Level FlightAware ADS-B
Tue 11:15:38 PM 36.9284 -86.4515 217° Southwest 483 556 36,000 207 Level FlightAware ADS-B
Tue 11:15:53 PM 36.9036 -86.4824 225° Southwest 480 552 36,100 130 Climbing FlightAware ADS-B
Tue 11:16:24 PM 36.8602 -86.5454 229° Southwest 473 544 36,100  Level FlightAware ADS-B
Tue 11:16:54 PM 36.8179 -86.6070 229° Southwest 460 529 36,100 -97 Level FlightAware ADS-B
Tue 11:17:26 PM 36.7743 -86.6713 230° Southwest 459 528 36,000 -95 Descending FlightAware ADS-B
Tue 11:17:57 PM 36.7316 -86.7338 230° Southwest 458 527 36,000 -492 Level FlightAware ADS-B
Tue 11:18:27 PM 36.6904 -86.7940 230° Southwest 456 525 35,500 -952 Descending FlightAware ADS-B
Tue 11:19:00 PM 36.6449 -86.8609 230° Southwest 463 533 35,000 -286 Descending FlightAware ADS-B
Tue 11:20:12 PM 36.5450 -87.0060 229° Southwest 460 529 35,000  Level FlightAware ADS-B
Tue 11:20:46 PM 36.4980 -87.0740 229° Southwest 456 525 35,000  Level FlightAware ADS-B
Tue 11:21:28 PM 36.4400 -87.1580 229° Southwest 458 527 35,000  Level FlightAware ADS-B
Tue 11:22:12 PM 36.3800 -87.2470 230° Southwest 461 531 35,000  Level FlightAware ADS-B
Tue 11:22:52 PM 36.3250 -87.3270 230° Southwest 462 532 35,000  Level FlightAware ADS-B
Tue 11:23:32 PM 36.2680 -87.4080 229° Southwest 463 533 35,000  Level FlightAware ADS-B
Tue 11:24:18 PM 36.2040 -87.5000 229° Southwest 460 529 35,000  Level FlightAware ADS-B
Tue 11:24:58 PM 36.1480 -87.5800 229° Southwest 461 531 35,000 -143 Level FlightAware ADS-B
Tue 11:25:42 PM 36.0860 -87.6680 229° Southwest 467 537 34,800 -571 Descending FlightAware ADS-B
Tue 11:26:22 PM 36.0300 -87.7480 229° Southwest 466 536 34,200 -929 Descending FlightAware ADS-B
Tue 11:27:06 PM 35.9680 -87.8370 229° Southwest 468 539 33,500 -1,020 Descending FlightAware ADS-B
Tue 11:28:02 PM 35.8890 -87.9490 229° Southwest 469 540 32,500 -978 Descending FlightAware ADS-B
Tue 11:28:38 PM 35.8380 -88.0210 229° Southwest 465 535 32,000 -815 Descending FlightAware ADS-B
Tue 11:29:23 PM 35.7770 -88.1050 228° Southwest 464 534 31,400 -2,175 Descending FlightAware ADS-B
Tue 11:29:58 PM 35.7240 -88.1820 230° Southwest 460 529 29,100 -1,899 Descending FlightAware ADS-B
Tue 11:30:42 PM 35.6710 -88.2550 228° Southwest 460 529 28,900 -150 Descending FlightAware ADS-B
Tue 11:31:18 PM 35.6270 -88.3140 227° Southwest 460 529 28,900  Level FlightAware ADS-B
Tue 11:32:06 PM 35.5690 -88.3930 228° Southwest 460 529 28,900  Level FlightAware ADS-B
Tue 11:32:44 PM 35.5230 -88.4560 228° Southwest 460 529 28,900  Level FlightAware ADS-B
Tue 11:33:32 PM 35.4650 -88.5350 228° Southwest 460 529 28,900 -6,188 Level FlightAware ADS-B
Tue 11:34:20 PM 35.3792 -88.6356 228° Southwest 419 482 19,000 -6,722 Descending Memphis Center
Tue 11:35:20 PM 35.3075 -88.7261 226° Southwest 398 458 16,800 -2,250 Descending Memphis Center
Tue 11:36:20 PM 35.2314 -88.8192 225° Southwest 382 440 14,500 -2,250 Descending Memphis Center
Tue 11:37:20 PM 35.1594 -88.9094 226° Southwest 382 440 12,300 -1,750 Descending Memphis Center
Tue 11:38:20 PM 35.0917 -88.9942 226° Southwest 382 440 11,000 -1,200 Descending Memphis Center
Tue 11:39:20 PM 35.0361 -89.0764 230° Southwest 345 397 9,900 -1,300 Descending Memphis Center
Tue 11:40:20 PM 35.0372 -89.1728 271° West 283 326 8,400 -1,400 Descending Memphis Center
Tue 11:41:20 PM 35.0400 -89.2664 272° West 277 319 7,100 -900 Descending Memphis Center
Tue 11:42:20 PM 35.0408 -89.3450 271° West 253 291 6,600 -500 Descending Memphis Center
Tue 11:43:20 PM 35.0433 -89.4211 272° West 228 262 6,100 -650 Descending Memphis Center
Tue 11:44:20 PM 35.0458 -89.4844 273° West 214 246 5,300 -900 Descending Memphis Center
Tue 11:45:20 PM 35.0486 -89.5506 273° West 207 238 4,300 -650 Descending Memphis Center
Tue 11:46:20 PM 35.0489 -89.6064 270° West 186 214 4,000 -550 Descending Memphis Center
Tue 11:47:20 PM 35.0511 -89.6594 273° West 163 188 3,200 -500 Descending Memphis Center
Tue 11:48:20 PM 35.0536 -89.7078 274° West 157 181 3,000 -100 Descending Memphis Center
Tue 11:49:20 PM 35.0558 -89.7608 273° West 157 181 3,000 -200 Level Memphis Center
Tue 11:50:20 PM 35.0561 -89.8092 270° West 157 181 2,600 -550 Descending Memphis Center
Tue 11:51:20 PM 35.0586 -89.8600 273° West 157 181 1,900 -750 Descending Memphis Center
Tue 11:52:20 PM 35.0586 -89.9056 270° West 157 181 1,100 -690 Descending Memphis Center
Tue 11:53:13 PM 35.0500 -89.9500 257° West 133 153 600 -566 Descending KMEM
Tue 11:55:00 PM 35.0333 -89.9667 270° West  Level FlightAware Approximate
Wed 12:02:00 AM 35.0424 -89.9767 270° West  Level Estimated
Wed 12:03:00 AM 35.0424 -89.9767 270° West  Level Estimated
Wed 12:04:00 AM 35.0424 -89.9767 270° West  Level Estimated
Wed 12:05:00 AM 35.0424 -89.9767 270° West  Level Estimated
Wed 12:06:00 AM 35.0424 -89.9767 270° West  Level Estimated

Login

Don't have an account? Register now (free) for customized features, flight alerts, and more!